< < Back
Terminal Aerodrome Forecast


Current Version              Previous Versions:   1  2  3  4  5  6  7  8  9  

Terminal Aerodrome Forecast

051
FTUS44 KHUN 280943 AAB
TAFHSV
TAF AMD
KHSV 280943Z 2810/2906 02003KT 4SM BR SCT008 OVC110
      TEMPO 2810/2812 BKN008
     FM281300 04007KT P6SM SCT060 SCT250
     FM290000 02005KT P6SM FEW050=



Latest METAR

039
SAUS80 KWBC 290300
MTRHSV
METAR KHSV 290253Z 36005KT 10SM FEW140 27/18 A3001 RMK AO2 SLP152
T02720178 51010


USA.gov is the U.S. government's official web portal to all federal, state and local government web resources and services.